sensor_id;sensor_type;location;lat;lon;timestamp;P1;durP1;ratioP1;P2;durP2;ratioP2
20986;SDS011;10652;50.306;8.570;2023-07-31T00:01:54;2.55;;;1.10;;
20986;SDS011;10652;50.306;8.570;2023-07-31T00:05:56;3.95;;;1.30;;
20986;SDS011;10652;50.306;8.570;2023-07-31T00:09:59;6.90;;;1.52;;
20986;SDS011;10652;50.306;8.570;2023-07-31T00:14:01;4.88;;;1.80;;
20986;SDS011;10652;50.306;8.570;2023-07-31T00:18:03;4.72;;;1.25;;
20986;SDS011;10652;50.306;8.570;2023-07-31T00:22:05;4.35;;;1.20;;
20986;SDS011;10652;50.306;8.570;2023-07-31T00:26:07;4.28;;;1.30;;
20986;SDS011;10652;50.306;8.570;2023-07-31T00:30:10;2.22;;;1.10;;
20986;SDS011;10652;50.306;8.570;2023-07-31T00:34:12;4.38;;;1.35;;
20986;SDS011;10652;50.306;8.570;2023-07-31T00:38:14;3.35;;;1.13;;
20986;SDS011;10652;50.306;8.570;2023-07-31T00:42:16;2.92;;;1.20;;
20986;SDS011;10652;50.306;8.570;2023-07-31T00:46:18;3.10;;;1.50;;
20986;SDS011;10652;50.306;8.570;2023-07-31T00:50:22;3.35;;;1.10;;
20986;SDS011;10652;50.306;8.570;2023-07-31T00:54:26;4.38;;;1.60;;
20986;SDS011;10652;50.306;8.570;2023-07-31T00:58:28;3.50;;;1.10;;
20986;SDS011;10652;50.306;8.570;2023-07-31T01:02:30;4.43;;;1.30;;
20986;SDS011;10652;50.306;8.570;2023-07-31T01:15:44;2.85;;;1.30;;
20986;SDS011;10652;50.306;8.570;2023-07-31T01:19:46;6.65;;;1.58;;
20986;SDS011;10652;50.306;8.570;2023-07-31T01:28:19;3.75;;;1.23;;
20986;SDS011;10652;50.306;8.570;2023-07-31T01:32:27;4.55;;;1.60;;
20986;SDS011;10652;50.306;8.570;2023-07-31T01:36:30;4.03;;;1.13;;
20986;SDS011;10652;50.306;8.570;2023-07-31T01:40:34;2.20;;;1.15;;
20986;SDS011;10652;50.306;8.570;2023-07-31T01:44:37;4.75;;;1.73;;
20986;SDS011;10652;50.306;8.570;2023-07-31T01:48:39;2.70;;;1.50;;
20986;SDS011;10652;50.306;8.570;2023-07-31T01:52:41;4.07;;;1.40;;
20986;SDS011;10652;50.306;8.570;2023-07-31T01:56:43;4.13;;;1.63;;
20986;SDS011;10652;50.306;8.570;2023-07-31T02:00:45;2.78;;;1.40;;
20986;SDS011;10652;50.306;8.570;2023-07-31T02:04:48;3.45;;;1.50;;
20986;SDS011;10652;50.306;8.570;2023-07-31T02:08:50;3.85;;;1.40;;
20986;SDS011;10652;50.306;8.570;2023-07-31T02:12:53;3.50;;;1.50;;
20986;SDS011;10652;50.306;8.570;2023-07-31T02:16:55;2.10;;;1.40;;
20986;SDS011;10652;50.306;8.570;2023-07-31T02:20:57;4.05;;;1.20;;
20986;SDS011;10652;50.306;8.570;2023-07-31T02:25:00;3.15;;;1.52;;
20986;SDS011;10652;50.306;8.570;2023-07-31T02:29:02;3.15;;;1.52;;
20986;SDS011;10652;50.306;8.570;2023-07-31T02:33:05;2.75;;;1.40;;
20986;SDS011;10652;50.306;8.570;2023-07-31T02:37:07;2.83;;;1.35;;
20986;SDS011;10652;50.306;8.570;2023-07-31T02:41:10;2.55;;;1.60;;
20986;SDS011;10652;50.306;8.570;2023-07-31T02:45:12;3.58;;;1.90;;
20986;SDS011;10652;50.306;8.570;2023-07-31T02:49:14;4.78;;;1.70;;
20986;SDS011;10652;50.306;8.570;2023-07-31T02:53:16;3.13;;;1.83;;
20986;SDS011;10652;50.306;8.570;2023-07-31T02:57:18;2.70;;;1.40;;
20986;SDS011;10652;50.306;8.570;2023-07-31T03:01:20;2.78;;;1.65;;
20986;SDS011;10652;50.306;8.570;2023-07-31T03:05:22;3.92;;;1.55;;
20986;SDS011;10652;50.306;8.570;2023-07-31T03:09:25;2.95;;;1.55;;
20986;SDS011;10652;50.306;8.570;2023-07-31T03:13:27;1.92;;;1.50;;
20986;SDS011;10652;50.306;8.570;2023-07-31T03:17:29;2.60;;;1.73;;
20986;SDS011;10652;50.306;8.570;2023-07-31T03:21:31;3.55;;;1.67;;
20986;SDS011;10652;50.306;8.570;2023-07-31T03:25:33;3.22;;;1.70;;
20986;SDS011;10652;50.306;8.570;2023-07-31T03:29:35;4.68;;;1.80;;
20986;SDS011;10652;50.306;8.570;2023-07-31T03:33:37;4.38;;;1.80;;
20986;SDS011;10652;50.306;8.570;2023-07-31T03:37:39;5.25;;;1.58;;
20986;SDS011;10652;50.306;8.570;2023-07-31T03:41:42;4.00;;;1.50;;
20986;SDS011;10652;50.306;8.570;2023-07-31T03:45:44;2.97;;;1.60;;
20986;SDS011;10652;50.306;8.570;2023-07-31T03:49:46;3.28;;;1.60;;
20986;SDS011;10652;50.306;8.570;2023-07-31T03:53:49;3.05;;;1.30;;
20986;SDS011;10652;50.306;8.570;2023-07-31T03:57:51;3.67;;;1.30;;
20986;SDS011;10652;50.306;8.570;2023-07-31T04:01:53;3.83;;;1.25;;
20986;SDS011;10652;50.306;8.570;2023-07-31T04:05:55;3.65;;;1.50;;
20986;SDS011;10652;50.306;8.570;2023-07-31T04:09:59;3.45;;;1.50;;
20986;SDS011;10652;50.306;8.570;2023-07-31T04:14:02;2.67;;;1.20;;
20986;SDS011;10652;50.306;8.570;2023-07-31T04:18:04;4.25;;;1.30;;
20986;SDS011;10652;50.306;8.570;2023-07-31T04:22:07;4.05;;;1.55;;
20986;SDS011;10652;50.306;8.570;2023-07-31T04:26:09;3.00;;;1.38;;
20986;SDS011;10652;50.306;8.570;2023-07-31T04:30:11;2.22;;;1.27;;
20986;SDS011;10652;50.306;8.570;2023-07-31T04:34:13;2.30;;;1.35;;
20986;SDS011;10652;50.306;8.570;2023-07-31T04:38:15;4.30;;;1.73;;
20986;SDS011;10652;50.306;8.570;2023-07-31T04:42:17;2.05;;;1.60;;
20986;SDS011;10652;50.306;8.570;2023-07-31T04:46:19;2.45;;;1.40;;
20986;SDS011;10652;50.306;8.570;2023-07-31T04:50:21;4.72;;;1.60;;
20986;SDS011;10652;50.306;8.570;2023-07-31T04:54:23;3.13;;;1.35;;
20986;SDS011;10652;50.306;8.570;2023-07-31T04:58:28;3.17;;;1.67;;
20986;SDS011;10652;50.306;8.570;2023-07-31T05:02:30;5.03;;;1.80;;
20986;SDS011;10652;50.306;8.570;2023-07-31T05:06:32;4.07;;;1.70;;
20986;SDS011;10652;50.306;8.570;2023-07-31T05:10:34;2.85;;;1.65;;
20986;SDS011;10652;50.306;8.570;2023-07-31T05:14:37;4.07;;;1.63;;
20986;SDS011;10652;50.306;8.570;2023-07-31T05:18:39;4.15;;;1.27;;
20986;SDS011;10652;50.306;8.570;2023-07-31T05:22:41;2.80;;;1.27;;
20986;SDS011;10652;50.306;8.570;2023-07-31T05:26:43;2.97;;;1.27;;
20986;SDS011;10652;50.306;8.570;2023-07-31T05:30:45;4.03;;;1.40;;
20986;SDS011;10652;50.306;8.570;2023-07-31T05:34:47;4.90;;;1.75;;
20986;SDS011;10652;50.306;8.570;2023-07-31T05:38:49;3.08;;;1.35;;
20986;SDS011;10652;50.306;8.570;2023-07-31T05:42:51;2.90;;;1.50;;
20986;SDS011;10652;50.306;8.570;2023-07-31T05:46:53;3.35;;;1.38;;
20986;SDS011;10652;50.306;8.570;2023-07-31T05:50:55;2.75;;;1.40;;
20986;SDS011;10652;50.306;8.570;2023-07-31T05:54:58;3.47;;;1.50;;
20986;SDS011;10652;50.306;8.570;2023-07-31T05:59:00;5.00;;;1.67;;
20986;SDS011;10652;50.306;8.570;2023-07-31T06:03:02;3.65;;;1.80;;
20986;SDS011;10652;50.306;8.570;2023-07-31T06:07:04;5.10;;;1.50;;
20986;SDS011;10652;50.306;8.570;2023-07-31T06:11:07;3.67;;;1.65;;
20986;SDS011;10652;50.306;8.570;2023-07-31T06:15:11;4.57;;;1.50;;
20986;SDS011;10652;50.306;8.570;2023-07-31T06:19:13;2.90;;;1.48;;
20986;SDS011;10652;50.306;8.570;2023-07-31T06:23:15;3.08;;;1.60;;
20986;SDS011;10652;50.306;8.570;2023-07-31T06:27:17;4.20;;;1.60;;
20986;SDS011;10652;50.306;8.570;2023-07-31T06:31:19;5.13;;;1.80;;
20986;SDS011;10652;50.306;8.570;2023-07-31T06:35:24;3.75;;;1.73;;
20986;SDS011;10652;50.306;8.570;2023-07-31T06:39:27;3.20;;;1.70;;
20986;SDS011;10652;50.306;8.570;2023-07-31T06:43:29;4.57;;;1.85;;
20986;SDS011;10652;50.306;8.570;2023-07-31T06:47:31;5.75;;;2.05;;
20986;SDS011;10652;50.306;8.570;2023-07-31T06:51:34;5.65;;;1.85;;
20986;SDS011;10652;50.306;8.570;2023-07-31T06:55:37;3.58;;;2.00;;
20986;SDS011;10652;50.306;8.570;2023-07-31T06:59:39;6.10;;;2.47;;
20986;SDS011;10652;50.306;8.570;2023-07-31T07:03:42;3.88;;;2.20;;
20986;SDS011;10652;50.306;8.570;2023-07-31T07:07:44;4.22;;;1.77;;
20986;SDS011;10652;50.306;8.570;2023-07-31T07:11:46;4.70;;;1.73;;
20986;SDS011;10652;50.306;8.570;2023-07-31T07:15:49;3.90;;;1.90;;
20986;SDS011;10652;50.306;8.570;2023-07-31T07:19:51;6.07;;;2.50;;
20986;SDS011;10652;50.306;8.570;2023-07-31T07:23:53;6.18;;;2.00;;
20986;SDS011;10652;50.306;8.570;2023-07-31T07:27:56;5.18;;;2.30;;
20986;SDS011;10652;50.306;8.570;2023-07-31T07:31:58;5.95;;;2.08;;
20986;SDS011;10652;50.306;8.570;2023-07-31T07:36:01;3.60;;;1.98;;
20986;SDS011;10652;50.306;8.570;2023-07-31T07:40:03;5.07;;;1.95;;
20986;SDS011;10652;50.306;8.570;2023-07-31T07:44:07;4.05;;;2.10;;
20986;SDS011;10652;50.306;8.570;2023-07-31T07:48:10;4.43;;;2.05;;
20986;SDS011;10652;50.306;8.570;2023-07-31T07:52:12;5.55;;;1.95;;
20986;SDS011;10652;50.306;8.570;2023-07-31T07:56:14;4.53;;;1.90;;
20986;SDS011;10652;50.306;8.570;2023-07-31T08:00:16;5.63;;;1.88;;
20986;SDS011;10652;50.306;8.570;2023-07-31T08:04:19;4.15;;;2.00;;
20986;SDS011;10652;50.306;8.570;2023-07-31T08:08:21;4.53;;;2.20;;
20986;SDS011;10652;50.306;8.570;2023-07-31T08:12:23;4.50;;;2.10;;
20986;SDS011;10652;50.306;8.570;2023-07-31T08:16:25;5.40;;;2.25;;
20986;SDS011;10652;50.306;8.570;2023-07-31T08:20:27;6.38;;;2.15;;
20986;SDS011;10652;50.306;8.570;2023-07-31T08:24:29;5.63;;;2.25;;
20986;SDS011;10652;50.306;8.570;2023-07-31T08:28:31;5.38;;;1.83;;
20986;SDS011;10652;50.306;8.570;2023-07-31T08:32:33;4.57;;;1.98;;
20986;SDS011;10652;50.306;8.570;2023-07-31T08:36:36;3.90;;;1.98;;
20986;SDS011;10652;50.306;8.570;2023-07-31T08:40:38;3.30;;;1.80;;
20986;SDS011;10652;50.306;8.570;2023-07-31T08:44:41;4.30;;;1.90;;
20986;SDS011;10652;50.306;8.570;2023-07-31T08:48:43;4.80;;;2.05;;
20986;SDS011;10652;50.306;8.570;2023-07-31T08:52:46;6.15;;;2.10;;
20986;SDS011;10652;50.306;8.570;2023-07-31T08:56:50;5.28;;;2.00;;
20986;SDS011;10652;50.306;8.570;2023-07-31T09:00:54;3.83;;;1.75;;
20986;SDS011;10652;50.306;8.570;2023-07-31T09:04:57;3.85;;;1.55;;
20986;SDS011;10652;50.306;8.570;2023-07-31T09:09:00;3.95;;;1.75;;
20986;SDS011;10652;50.306;8.570;2023-07-31T09:13:02;5.35;;;2.00;;
20986;SDS011;10652;50.306;8.570;2023-07-31T09:17:05;5.03;;;2.10;;
20986;SDS011;10652;50.306;8.570;2023-07-31T09:21:07;4.63;;;2.15;;
20986;SDS011;10652;50.306;8.570;2023-07-31T09:25:14;5.50;;;2.38;;
20986;SDS011;10652;50.306;8.570;2023-07-31T09:29:20;5.35;;;1.63;;
20986;SDS011;10652;50.306;8.570;2023-07-31T09:33:22;4.00;;;2.00;;
20986;SDS011;10652;50.306;8.570;2023-07-31T09:37:24;5.10;;;2.20;;
20986;SDS011;10652;50.306;8.570;2023-07-31T09:41:26;3.10;;;1.70;;
20986;SDS011;10652;50.306;8.570;2023-07-31T09:45:29;5.13;;;1.88;;
20986;SDS011;10652;50.306;8.570;2023-07-31T09:49:45;5.65;;;1.98;;
20986;SDS011;10652;50.306;8.570;2023-07-31T09:53:49;3.97;;;1.90;;
20986;SDS011;10652;50.306;8.570;2023-07-31T09:57:52;4.75;;;2.30;;
20986;SDS011;10652;50.306;8.570;2023-07-31T10:01:58;4.55;;;2.10;;
20986;SDS011;10652;50.306;8.570;2023-07-31T10:06:00;3.95;;;2.17;;
20986;SDS011;10652;50.306;8.570;2023-07-31T10:10:04;7.22;;;2.08;;
20986;SDS011;10652;50.306;8.570;2023-07-31T10:14:08;4.80;;;2.00;;
20986;SDS011;10652;50.306;8.570;2023-07-31T10:18:10;4.38;;;2.00;;
20986;SDS011;10652;50.306;8.570;2023-07-31T10:22:14;5.35;;;2.10;;
20986;SDS011;10652;50.306;8.570;2023-07-31T10:26:17;4.72;;;2.20;;
20986;SDS011;10652;50.306;8.570;2023-07-31T10:30:22;6.25;;;2.15;;
20986;SDS011;10652;50.306;8.570;2023-07-31T10:34:28;5.47;;;2.25;;
20986;SDS011;10652;50.306;8.570;2023-07-31T10:38:30;5.35;;;2.28;;
20986;SDS011;10652;50.306;8.570;2023-07-31T10:42:34;4.57;;;2.03;;
20986;SDS011;10652;50.306;8.570;2023-07-31T10:46:41;3.67;;;1.80;;
20986;SDS011;10652;50.306;8.570;2023-07-31T10:50:48;4.43;;;2.38;;
20986;SDS011;10652;50.306;8.570;2023-07-31T10:59:40;6.03;;;1.92;;
20986;SDS011;10652;50.306;8.570;2023-07-31T11:03:46;5.15;;;1.88;;
20986;SDS011;10652;50.306;8.570;2023-07-31T11:07:51;4.32;;;1.73;;
20986;SDS011;10652;50.306;8.570;2023-07-31T11:11:53;6.07;;;1.85;;
20986;SDS011;10652;50.306;8.570;2023-07-31T11:15:56;4.28;;;1.83;;
20986;SDS011;10652;50.306;8.570;2023-07-31T11:19:58;4.03;;;1.83;;
20986;SDS011;10652;50.306;8.570;2023-07-31T11:24:00;4.57;;;2.15;;
20986;SDS011;10652;50.306;8.570;2023-07-31T11:28:06;3.63;;;1.67;;
20986;SDS011;10652;50.306;8.570;2023-07-31T11:32:15;4.78;;;1.90;;
20986;SDS011;10652;50.306;8.570;2023-07-31T11:36:20;3.17;;;1.83;;
20986;SDS011;10652;50.306;8.570;2023-07-31T11:40:23;5.30;;;1.58;;
20986;SDS011;10652;50.306;8.570;2023-07-31T11:44:37;5.28;;;1.98;;
20986;SDS011;10652;50.306;8.570;2023-07-31T11:48:43;3.53;;;1.58;;
20986;SDS011;10652;50.306;8.570;2023-07-31T11:52:46;4.13;;;1.98;;
20986;SDS011;10652;50.306;8.570;2023-07-31T11:56:51;2.63;;;1.57;;
20986;SDS011;10652;50.306;8.570;2023-07-31T12:00:54;3.40;;;1.65;;
20986;SDS011;10652;50.306;8.570;2023-07-31T12:04:56;4.88;;;1.98;;
20986;SDS011;10652;50.306;8.570;2023-07-31T12:09:03;4.88;;;2.03;;
20986;SDS011;10652;50.306;8.570;2023-07-31T12:13:10;3.63;;;1.90;;
20986;SDS011;10652;50.306;8.570;2023-07-31T12:17:17;4.28;;;1.80;;
20986;SDS011;10652;50.306;8.570;2023-07-31T12:21:22;4.80;;;2.03;;
20986;SDS011;10652;50.306;8.570;2023-07-31T12:25:33;3.45;;;1.73;;
20986;SDS011;10652;50.306;8.570;2023-07-31T12:29:35;5.95;;;1.90;;
20986;SDS011;10652;50.306;8.570;2023-07-31T12:33:42;2.75;;;1.55;;
20986;SDS011;10652;50.306;8.570;2023-07-31T12:37:45;5.03;;;2.20;;
20986;SDS011;10652;50.306;8.570;2023-07-31T12:41:47;3.92;;;1.95;;
20986;SDS011;10652;50.306;8.570;2023-07-31T12:45:49;3.47;;;1.70;;
20986;SDS011;10652;50.306;8.570;2023-07-31T12:49:51;4.35;;;1.92;;
20986;SDS011;10652;50.306;8.570;2023-07-31T12:53:53;3.67;;;1.67;;
20986;SDS011;10652;50.306;8.570;2023-07-31T12:57:55;6.28;;;1.95;;
20986;SDS011;10652;50.306;8.570;2023-07-31T13:01:58;5.20;;;1.70;;
20986;SDS011;10652;50.306;8.570;2023-07-31T13:06:00;5.70;;;1.70;;
20986;SDS011;10652;50.306;8.570;2023-07-31T13:10:02;3.65;;;1.77;;
20986;SDS011;10652;50.306;8.570;2023-07-31T13:14:04;4.82;;;1.98;;
20986;SDS011;10652;50.306;8.570;2023-07-31T13:18:07;3.35;;;1.75;;
20986;SDS011;10652;50.306;8.570;2023-07-31T13:22:09;2.88;;;1.77;;
20986;SDS011;10652;50.306;8.570;2023-07-31T13:26:12;5.55;;;1.67;;
20986;SDS011;10652;50.306;8.570;2023-07-31T13:30:14;3.97;;;1.60;;
20986;SDS011;10652;50.306;8.570;2023-07-31T13:34:16;4.95;;;1.70;;
20986;SDS011;10652;50.306;8.570;2023-07-31T13:38:18;3.47;;;1.60;;
20986;SDS011;10652;50.306;8.570;2023-07-31T13:42:20;3.42;;;1.92;;
20986;SDS011;10652;50.306;8.570;2023-07-31T13:46:23;2.95;;;1.70;;
20986;SDS011;10652;50.306;8.570;2023-07-31T13:50:27;3.55;;;1.83;;
20986;SDS011;10652;50.306;8.570;2023-07-31T13:54:29;4.07;;;1.80;;
20986;SDS011;10652;50.306;8.570;2023-07-31T13:58:33;3.25;;;1.67;;
20986;SDS011;10652;50.306;8.570;2023-07-31T14:02:35;2.47;;;1.70;;
20986;SDS011;10652;50.306;8.570;2023-07-31T14:06:37;2.55;;;1.70;;
20986;SDS011;10652;50.306;8.570;2023-07-31T14:10:40;3.70;;;1.52;;
20986;SDS011;10652;50.306;8.570;2023-07-31T14:14:42;2.05;;;1.23;;
20986;SDS011;10652;50.306;8.570;2023-07-31T14:18:44;3.90;;;1.70;;
20986;SDS011;10652;50.306;8.570;2023-07-31T14:22:50;1.92;;;1.50;;
20986;SDS011;10652;50.306;8.570;2023-07-31T14:26:52;2.92;;;1.60;;
20986;SDS011;10652;50.306;8.570;2023-07-31T14:30:54;2.95;;;1.50;;
20986;SDS011;10652;50.306;8.570;2023-07-31T14:34:56;2.25;;;1.63;;
20986;SDS011;10652;50.306;8.570;2023-07-31T14:38:58;2.40;;;1.50;;
20986;SDS011;10652;50.306;8.570;2023-07-31T14:43:00;2.70;;;1.50;;
20986;SDS011;10652;50.306;8.570;2023-07-31T14:47:02;2.63;;;1.40;;
20986;SDS011;10652;50.306;8.570;2023-07-31T14:51:05;3.50;;;1.48;;
20986;SDS011;10652;50.306;8.570;2023-07-31T14:55:07;3.42;;;1.85;;
20986;SDS011;10652;50.306;8.570;2023-07-31T14:59:11;3.17;;;1.77;;
20986;SDS011;10652;50.306;8.570;2023-07-31T15:03:13;5.90;;;2.10;;
20986;SDS011;10652;50.306;8.570;2023-07-31T15:07:15;4.57;;;1.73;;
20986;SDS011;10652;50.306;8.570;2023-07-31T15:11:17;3.10;;;1.65;;
20986;SDS011;10652;50.306;8.570;2023-07-31T15:15:20;3.17;;;1.40;;
20986;SDS011;10652;50.306;8.570;2023-07-31T15:19:22;2.45;;;1.58;;
20986;SDS011;10652;50.306;8.570;2023-07-31T15:23:27;3.88;;;2.08;;
20986;SDS011;10652;50.306;8.570;2023-07-31T15:27:29;4.25;;;1.80;;
20986;SDS011;10652;50.306;8.570;2023-07-31T15:31:31;3.55;;;2.03;;
20986;SDS011;10652;50.306;8.570;2023-07-31T15:35:33;5.63;;;2.10;;
20986;SDS011;10652;50.306;8.570;2023-07-31T15:39:36;4.75;;;1.90;;
20986;SDS011;10652;50.306;8.570;2023-07-31T15:43:38;3.90;;;1.65;;
20986;SDS011;10652;50.306;8.570;2023-07-31T15:47:40;2.95;;;1.98;;
20986;SDS011;10652;50.306;8.570;2023-07-31T15:51:42;2.22;;;1.52;;
20986;SDS011;10652;50.306;8.570;2023-07-31T15:55:44;4.30;;;1.60;;
20986;SDS011;10652;50.306;8.570;2023-07-31T15:59:46;4.07;;;1.75;;
20986;SDS011;10652;50.306;8.570;2023-07-31T16:03:48;4.15;;;1.88;;
20986;SDS011;10652;50.306;8.570;2023-07-31T16:07:51;4.32;;;1.73;;
20986;SDS011;10652;50.306;8.570;2023-07-31T16:11:53;2.38;;;1.13;;
20986;SDS011;10652;50.306;8.570;2023-07-31T16:15:55;3.85;;;1.60;;
20986;SDS011;10652;50.306;8.570;2023-07-31T16:19:58;3.78;;;1.52;;
20986;SDS011;10652;50.306;8.570;2023-07-31T16:24:00;4.18;;;1.60;;
20986;SDS011;10652;50.306;8.570;2023-07-31T16:28:03;3.00;;;1.98;;
20986;SDS011;10652;50.306;8.570;2023-07-31T16:32:05;2.10;;;1.58;;
20986;SDS011;10652;50.306;8.570;2023-07-31T16:36:12;1.95;;;1.35;;
20986;SDS011;10652;50.306;8.570;2023-07-31T16:40:15;4.88;;;2.03;;
20986;SDS011;10652;50.306;8.570;2023-07-31T16:44:17;2.88;;;1.30;;
20986;SDS011;10652;50.306;8.570;2023-07-31T16:48:19;2.83;;;1.23;;
20986;SDS011;10652;50.306;8.570;2023-07-31T16:52:21;2.22;;;1.20;;
20986;SDS011;10652;50.306;8.570;2023-07-31T16:56:23;1.38;;;1.02;;
20986;SDS011;10652;50.306;8.570;2023-07-31T17:00:27;1.85;;;1.05;;
20986;SDS011;10652;50.306;8.570;2023-07-31T17:04:29;4.03;;;1.60;;
20986;SDS011;10652;50.306;8.570;2023-07-31T17:08:33;3.15;;;1.00;;
20986;SDS011;10652;50.306;8.570;2023-07-31T17:12:35;2.33;;;1.40;;
20986;SDS011;10652;50.306;8.570;2023-07-31T17:16:37;2.47;;;1.50;;
20986;SDS011;10652;50.306;8.570;2023-07-31T17:20:39;2.20;;;1.50;;
20986;SDS011;10652;50.306;8.570;2023-07-31T17:24:42;2.10;;;1.20;;
20986;SDS011;10652;50.306;8.570;2023-07-31T17:28:44;2.90;;;1.60;;
20986;SDS011;10652;50.306;8.570;2023-07-31T17:32:46;4.43;;;1.50;;
20986;SDS011;10652;50.306;8.570;2023-07-31T17:36:49;3.22;;;1.67;;
20986;SDS011;10652;50.306;8.570;2023-07-31T17:40:51;4.32;;;1.90;;
20986;SDS011;10652;50.306;8.570;2023-07-31T17:44:54;3.75;;;1.88;;
20986;SDS011;10652;50.306;8.570;2023-07-31T17:48:56;2.90;;;1.77;;
20986;SDS011;10652;50.306;8.570;2023-07-31T17:53:01;3.95;;;1.70;;
20986;SDS011;10652;50.306;8.570;2023-07-31T17:57:04;2.70;;;1.73;;
20986;SDS011;10652;50.306;8.570;2023-07-31T18:01:06;4.07;;;1.92;;
20986;SDS011;10652;50.306;8.570;2023-07-31T18:05:09;2.72;;;1.73;;
20986;SDS011;10652;50.306;8.570;2023-07-31T18:09:11;3.38;;;1.90;;
20986;SDS011;10652;50.306;8.570;2023-07-31T18:13:13;3.95;;;2.00;;
20986;SDS011;10652;50.306;8.570;2023-07-31T18:17:15;2.40;;;1.90;;
20986;SDS011;10652;50.306;8.570;2023-07-31T18:21:18;3.50;;;2.13;;
20986;SDS011;10652;50.306;8.570;2023-07-31T18:25:20;3.28;;;2.10;;
20986;SDS011;10652;50.306;8.570;2023-07-31T18:29:22;5.97;;;1.95;;
20986;SDS011;10652;50.306;8.570;2023-07-31T18:33:26;4.95;;;2.20;;
20986;SDS011;10652;50.306;8.570;2023-07-31T18:37:28;3.22;;;2.00;;
20986;SDS011;10652;50.306;8.570;2023-07-31T18:41:30;3.28;;;2.10;;
20986;SDS011;10652;50.306;8.570;2023-07-31T18:45:32;2.63;;;2.00;;
20986;SDS011;10652;50.306;8.570;2023-07-31T18:49:35;4.05;;;2.08;;
20986;SDS011;10652;50.306;8.570;2023-07-31T18:53:37;3.92;;;2.00;;
20986;SDS011;10652;50.306;8.570;2023-07-31T18:57:39;2.30;;;1.58;;
20986;SDS011;10652;50.306;8.570;2023-07-31T19:01:42;3.58;;;2.00;;
20986;SDS011;10652;50.306;8.570;2023-07-31T19:05:46;4.22;;;2.10;;
20986;SDS011;10652;50.306;8.570;2023-07-31T19:09:48;5.50;;;2.20;;
20986;SDS011;10652;50.306;8.570;2023-07-31T19:14:05;4.35;;;1.88;;
20986;SDS011;10652;50.306;8.570;2023-07-31T19:18:07;3.60;;;1.80;;
20986;SDS011;10652;50.306;8.570;2023-07-31T19:22:09;4.03;;;2.25;;
20986;SDS011;10652;50.306;8.570;2023-07-31T19:26:12;4.82;;;2.00;;
20986;SDS011;10652;50.306;8.570;2023-07-31T19:30:15;3.88;;;2.03;;
20986;SDS011;10652;50.306;8.570;2023-07-31T19:34:18;4.85;;;2.30;;
20986;SDS011;10652;50.306;8.570;2023-07-31T19:38:20;4.25;;;2.30;;
20986;SDS011;10652;50.306;8.570;2023-07-31T19:42:22;4.32;;;2.50;;
20986;SDS011;10652;50.306;8.570;2023-07-31T19:46:24;3.53;;;2.22;;
20986;SDS011;10652;50.306;8.570;2023-07-31T19:50:26;4.72;;;2.80;;
20986;SDS011;10652;50.306;8.570;2023-07-31T19:54:28;4.03;;;2.50;;
20986;SDS011;10652;50.306;8.570;2023-07-31T19:58:30;6.15;;;2.97;;
20986;SDS011;10652;50.306;8.570;2023-07-31T20:02:33;3.40;;;2.50;;
20986;SDS011;10652;50.306;8.570;2023-07-31T20:06:35;6.78;;;2.92;;
20986;SDS011;10652;50.306;8.570;2023-07-31T20:10:37;4.28;;;2.50;;
20986;SDS011;10652;50.306;8.570;2023-07-31T20:14:39;4.05;;;2.33;;
20986;SDS011;10652;50.306;8.570;2023-07-31T20:18:41;3.30;;;2.40;;
20986;SDS011;10652;50.306;8.570;2023-07-31T20:22:45;4.82;;;2.60;;
20986;SDS011;10652;50.306;8.570;2023-07-31T20:26:48;5.32;;;2.67;;
20986;SDS011;10652;50.306;8.570;2023-07-31T20:30:50;4.20;;;2.70;;
20986;SDS011;10652;50.306;8.570;2023-07-31T20:34:52;3.92;;;2.75;;
20986;SDS011;10652;50.306;8.570;2023-07-31T20:38:54;4.72;;;2.70;;
20986;SDS011;10652;50.306;8.570;2023-07-31T20:42:56;8.88;;;2.58;;
20986;SDS011;10652;50.306;8.570;2023-07-31T20:47:00;5.93;;;2.65;;
20986;SDS011;10652;50.306;8.570;2023-07-31T20:51:02;4.97;;;2.50;;
20986;SDS011;10652;50.306;8.570;2023-07-31T20:55:04;3.05;;;1.92;;
20986;SDS011;10652;50.306;8.570;2023-07-31T20:59:07;5.18;;;2.47;;
20986;SDS011;10652;50.306;8.570;2023-07-31T21:03:10;3.90;;;2.47;;
20986;SDS011;10652;50.306;8.570;2023-07-31T21:07:13;3.42;;;2.10;;
20986;SDS011;10652;50.306;8.570;2023-07-31T21:11:17;3.17;;;1.77;;
20986;SDS011;10652;50.306;8.570;2023-07-31T21:15:19;3.10;;;1.88;;
20986;SDS011;10652;50.306;8.570;2023-07-31T21:19:21;4.30;;;2.38;;
20986;SDS011;10652;50.306;8.570;2023-07-31T21:23:23;5.45;;;2.25;;
20986;SDS011;10652;50.306;8.570;2023-07-31T21:27:25;4.15;;;2.40;;
20986;SDS011;10652;50.306;8.570;2023-07-31T21:31:28;3.30;;;2.13;;
20986;SDS011;10652;50.306;8.570;2023-07-31T21:35:30;4.25;;;2.28;;
20986;SDS011;10652;50.306;8.570;2023-07-31T21:39:32;6.22;;;1.73;;
20986;SDS011;10652;50.306;8.570;2023-07-31T21:43:34;4.00;;;1.42;;
20986;SDS011;10652;50.306;8.570;2023-07-31T21:47:36;3.92;;;1.40;;
20986;SDS011;10652;50.306;8.570;2023-07-31T21:51:38;3.38;;;1.60;;
20986;SDS011;10652;50.306;8.570;2023-07-31T21:55:40;4.68;;;1.70;;
20986;SDS011;10652;50.306;8.570;2023-07-31T21:59:42;4.13;;;1.80;;
20986;SDS011;10652;50.306;8.570;2023-07-31T22:03:44;2.95;;;1.80;;
20986;SDS011;10652;50.306;8.570;2023-07-31T22:07:47;2.67;;;1.52;;
20986;SDS011;10652;50.306;8.570;2023-07-31T22:11:49;2.33;;;1.70;;
20986;SDS011;10652;50.306;8.570;2023-07-31T22:15:51;3.25;;;1.95;;
20986;SDS011;10652;50.306;8.570;2023-07-31T22:19:53;2.47;;;1.50;;
20986;SDS011;10652;50.306;8.570;2023-07-31T22:23:55;3.65;;;1.30;;
20986;SDS011;10652;50.306;8.570;2023-07-31T22:27:57;3.55;;;1.48;;
20986;SDS011;10652;50.306;8.570;2023-07-31T22:32:15;1.75;;;1.20;;
20986;SDS011;10652;50.306;8.570;2023-07-31T22:36:18;1.50;;;1.15;;
20986;SDS011;10652;50.306;8.570;2023-07-31T22:40:20;5.30;;;1.40;;
20986;SDS011;10652;50.306;8.570;2023-07-31T22:44:22;2.33;;;1.30;;
20986;SDS011;10652;50.306;8.570;2023-07-31T22:48:24;1.23;;;1.10;;
20986;SDS011;10652;50.306;8.570;2023-07-31T22:52:26;3.25;;;0.98;;
20986;SDS011;10652;50.306;8.570;2023-07-31T22:56:28;2.55;;;1.23;;
20986;SDS011;10652;50.306;8.570;2023-07-31T23:00:30;1.80;;;1.10;;
20986;SDS011;10652;50.306;8.570;2023-07-31T23:04:32;2.25;;;0.88;;
20986;SDS011;10652;50.306;8.570;2023-07-31T23:08:34;1.17;;;0.60;;
20986;SDS011;10652;50.306;8.570;2023-07-31T23:12:36;1.33;;;0.90;;
20986;SDS011;10652;50.306;8.570;2023-07-31T23:16:38;1.05;;;0.80;;
20986;SDS011;10652;50.306;8.570;2023-07-31T23:20:41;1.23;;;0.73;;
20986;SDS011;10652;50.306;8.570;2023-07-31T23:24:43;1.38;;;0.30;;
20986;SDS011;10652;50.306;8.570;2023-07-31T23:28:45;1.23;;;0.52;;
20986;SDS011;10652;50.306;8.570;2023-07-31T23:32:47;1.55;;;0.50;;
20986;SDS011;10652;50.306;8.570;2023-07-31T23:36:50;0.85;;;0.50;;
20986;SDS011;10652;50.306;8.570;2023-07-31T23:40:52;2.05;;;0.60;;
20986;SDS011;10652;50.306;8.570;2023-07-31T23:44:54;0.60;;;0.60;;
20986;SDS011;10652;50.306;8.570;2023-07-31T23:49:15;0.43;;;0.32;;
20986;SDS011;10652;50.306;8.570;2023-07-31T23:53:18;1.13;;;0.40;;
20986;SDS011;10652;50.306;8.570;2023-07-31T23:57:20;0.95;;;0.40;;
